sensor_id;sensor_type;location;lat;lon;timestamp;P1;durP1;ratioP1;P2;durP2;ratioP2
5521;SDS011;2783;48.730;8.006;2024-03-22T00:00:30;0.40;;;0.40;;
5521;SDS011;2783;48.730;8.006;2024-03-22T00:02:56;0.40;;;0.40;;
5521;SDS011;2783;48.730;8.006;2024-03-22T00:05:21;0.40;;;0.40;;
5521;SDS011;2783;48.730;8.006;2024-03-22T00:07:47;0.40;;;0.40;;
5521;SDS011;2783;48.730;8.006;2024-03-22T00:10:13;0.50;;;0.50;;
5521;SDS011;2783;48.730;8.006;2024-03-22T00:12:39;0.40;;;0.40;;
5521;SDS011;2783;48.730;8.006;2024-03-22T00:15:04;0.50;;;0.50;;
5521;SDS011;2783;48.730;8.006;2024-03-22T00:17:30;0.50;;;0.50;;
5521;SDS011;2783;48.730;8.006;2024-03-22T00:19:56;0.40;;;0.40;;
5521;SDS011;2783;48.730;8.006;2024-03-22T00:22:21;0.40;;;0.40;;
5521;SDS011;2783;48.730;8.006;2024-03-22T00:24:47;0.40;;;0.40;;
5521;SDS011;2783;48.730;8.006;2024-03-22T00:27:12;0.40;;;0.40;;
5521;SDS011;2783;48.730;8.006;2024-03-22T00:29:38;0.40;;;0.40;;
5521;SDS011;2783;48.730;8.006;2024-03-22T00:32:04;0.40;;;0.40;;
5521;SDS011;2783;48.730;8.006;2024-03-22T00:34:29;0.40;;;0.40;;
5521;SDS011;2783;48.730;8.006;2024-03-22T00:36:55;0.40;;;0.40;;
5521;SDS011;2783;48.730;8.006;2024-03-22T00:39:21;0.50;;;0.50;;
5521;SDS011;2783;48.730;8.006;2024-03-22T00:41:48;0.50;;;0.50;;
5521;SDS011;2783;48.730;8.006;2024-03-22T00:44:13;0.50;;;0.50;;
5521;SDS011;2783;48.730;8.006;2024-03-22T00:46:39;0.50;;;0.50;;
5521;SDS011;2783;48.730;8.006;2024-03-22T00:49:04;0.50;;;0.50;;
5521;SDS011;2783;48.730;8.006;2024-03-22T00:51:29;0.50;;;0.50;;
5521;SDS011;2783;48.730;8.006;2024-03-22T00:53:55;0.50;;;0.50;;
5521;SDS011;2783;48.730;8.006;2024-03-22T00:56:20;0.50;;;0.50;;
5521;SDS011;2783;48.730;8.006;2024-03-22T00:58:46;0.50;;;0.50;;
5521;SDS011;2783;48.730;8.006;2024-03-22T01:01:11;0.40;;;0.40;;
5521;SDS011;2783;48.730;8.006;2024-03-22T01:03:36;0.50;;;0.50;;
5521;SDS011;2783;48.730;8.006;2024-03-22T01:06:02;0.50;;;0.50;;
5521;SDS011;2783;48.730;8.006;2024-03-22T01:08:27;0.50;;;0.50;;
5521;SDS011;2783;48.730;8.006;2024-03-22T01:10:53;0.50;;;0.50;;
5521;SDS011;2783;48.730;8.006;2024-03-22T01:13:19;0.40;;;0.40;;
5521;SDS011;2783;48.730;8.006;2024-03-22T01:15:44;0.50;;;0.50;;
5521;SDS011;2783;48.730;8.006;2024-03-22T01:18:11;0.50;;;0.50;;
5521;SDS011;2783;48.730;8.006;2024-03-22T01:20:36;0.50;;;0.50;;
5521;SDS011;2783;48.730;8.006;2024-03-22T01:23:02;0.50;;;0.50;;
5521;SDS011;2783;48.730;8.006;2024-03-22T01:25:28;0.50;;;0.50;;
5521;SDS011;2783;48.730;8.006;2024-03-22T01:27:53;0.50;;;0.50;;
5521;SDS011;2783;48.730;8.006;2024-03-22T01:30:20;0.50;;;0.50;;
5521;SDS011;2783;48.730;8.006;2024-03-22T01:32:45;0.50;;;0.50;;
5521;SDS011;2783;48.730;8.006;2024-03-22T01:35:10;0.50;;;0.50;;
5521;SDS011;2783;48.730;8.006;2024-03-22T01:37:36;0.50;;;0.50;;
5521;SDS011;2783;48.730;8.006;2024-03-22T01:40:02;0.40;;;0.40;;
5521;SDS011;2783;48.730;8.006;2024-03-22T01:42:29;0.50;;;0.50;;
5521;SDS011;2783;48.730;8.006;2024-03-22T01:44:55;0.43;;;0.43;;
5521;SDS011;2783;48.730;8.006;2024-03-22T01:47:20;0.50;;;0.50;;
5521;SDS011;2783;48.730;8.006;2024-03-22T01:49:46;0.50;;;0.50;;
5521;SDS011;2783;48.730;8.006;2024-03-22T01:52:13;0.50;;;0.50;;
5521;SDS011;2783;48.730;8.006;2024-03-22T01:54:39;0.50;;;0.50;;
5521;SDS011;2783;48.730;8.006;2024-03-22T01:57:05;0.45;;;0.45;;
5521;SDS011;2783;48.730;8.006;2024-03-22T01:59:30;0.50;;;0.50;;
5521;SDS011;2783;48.730;8.006;2024-03-22T02:01:57;0.45;;;0.45;;
5521;SDS011;2783;48.730;8.006;2024-03-22T02:04:23;0.50;;;0.50;;
5521;SDS011;2783;48.730;8.006;2024-03-22T02:06:48;0.50;;;0.50;;
5521;SDS011;2783;48.730;8.006;2024-03-22T02:09:14;0.50;;;0.50;;
5521;SDS011;2783;48.730;8.006;2024-03-22T02:11:40;0.50;;;0.50;;
5521;SDS011;2783;48.730;8.006;2024-03-22T02:14:05;0.40;;;0.40;;
5521;SDS011;2783;48.730;8.006;2024-03-22T02:16:31;0.50;;;0.50;;
5521;SDS011;2783;48.730;8.006;2024-03-22T02:18:56;0.50;;;0.50;;
5521;SDS011;2783;48.730;8.006;2024-03-22T02:21:22;0.50;;;0.50;;
5521;SDS011;2783;48.730;8.006;2024-03-22T02:23:47;0.50;;;0.50;;
5521;SDS011;2783;48.730;8.006;2024-03-22T02:26:13;0.50;;;0.50;;
5521;SDS011;2783;48.730;8.006;2024-03-22T02:28:38;0.40;;;0.40;;
5521;SDS011;2783;48.730;8.006;2024-03-22T02:31:03;0.50;;;0.50;;
5521;SDS011;2783;48.730;8.006;2024-03-22T02:33:29;0.40;;;0.40;;
5521;SDS011;2783;48.730;8.006;2024-03-22T02:35:55;0.50;;;0.50;;
5521;SDS011;2783;48.730;8.006;2024-03-22T02:38:21;0.50;;;0.50;;
5521;SDS011;2783;48.730;8.006;2024-03-22T02:40:48;0.50;;;0.50;;
5521;SDS011;2783;48.730;8.006;2024-03-22T02:43:14;0.47;;;0.47;;
5521;SDS011;2783;48.730;8.006;2024-03-22T02:45:39;0.50;;;0.50;;
5521;SDS011;2783;48.730;8.006;2024-03-22T02:48:05;0.45;;;0.45;;
5521;SDS011;2783;48.730;8.006;2024-03-22T02:50:34;0.45;;;0.45;;
5521;SDS011;2783;48.730;8.006;2024-03-22T02:53:00;0.50;;;0.50;;
5521;SDS011;2783;48.730;8.006;2024-03-22T02:55:26;0.50;;;0.50;;
5521;SDS011;2783;48.730;8.006;2024-03-22T02:57:52;0.50;;;0.50;;
5521;SDS011;2783;48.730;8.006;2024-03-22T03:00:17;0.50;;;0.50;;
5521;SDS011;2783;48.730;8.006;2024-03-22T03:02:43;0.40;;;0.40;;
5521;SDS011;2783;48.730;8.006;2024-03-22T03:05:10;0.40;;;0.40;;
5521;SDS011;2783;48.730;8.006;2024-03-22T03:07:35;0.50;;;0.50;;
5521;SDS011;2783;48.730;8.006;2024-03-22T03:10:01;0.50;;;0.50;;
5521;SDS011;2783;48.730;8.006;2024-03-22T03:12:26;0.50;;;0.50;;
5521;SDS011;2783;48.730;8.006;2024-03-22T03:14:51;0.50;;;0.50;;
5521;SDS011;2783;48.730;8.006;2024-03-22T03:17:17;0.50;;;0.50;;
5521;SDS011;2783;48.730;8.006;2024-03-22T03:19:42;0.47;;;0.47;;
5521;SDS011;2783;48.730;8.006;2024-03-22T03:22:09;0.50;;;0.50;;
5521;SDS011;2783;48.730;8.006;2024-03-22T03:24:34;0.40;;;0.40;;
5521;SDS011;2783;48.730;8.006;2024-03-22T03:27:00;0.50;;;0.50;;
5521;SDS011;2783;48.730;8.006;2024-03-22T03:29:25;0.50;;;0.50;;
5521;SDS011;2783;48.730;8.006;2024-03-22T03:31:50;0.40;;;0.40;;
5521;SDS011;2783;48.730;8.006;2024-03-22T03:34:16;0.50;;;0.50;;
5521;SDS011;2783;48.730;8.006;2024-03-22T03:36:41;0.40;;;0.40;;
5521;SDS011;2783;48.730;8.006;2024-03-22T03:39:07;0.50;;;0.50;;
5521;SDS011;2783;48.730;8.006;2024-03-22T03:41:32;0.50;;;0.50;;
5521;SDS011;2783;48.730;8.006;2024-03-22T03:43:58;0.50;;;0.50;;
5521;SDS011;2783;48.730;8.006;2024-03-22T03:46:23;0.45;;;0.45;;
5521;SDS011;2783;48.730;8.006;2024-03-22T03:48:49;0.40;;;0.40;;
5521;SDS011;2783;48.730;8.006;2024-03-22T03:51:14;0.50;;;0.50;;
5521;SDS011;2783;48.730;8.006;2024-03-22T03:53:40;0.50;;;0.50;;
5521;SDS011;2783;48.730;8.006;2024-03-22T03:56:05;0.40;;;0.40;;
5521;SDS011;2783;48.730;8.006;2024-03-22T03:58:31;0.40;;;0.40;;
5521;SDS011;2783;48.730;8.006;2024-03-22T04:00:56;0.50;;;0.50;;
5521;SDS011;2783;48.730;8.006;2024-03-22T04:03:22;0.40;;;0.40;;
5521;SDS011;2783;48.730;8.006;2024-03-22T04:05:55;0.40;;;0.40;;
5521;SDS011;2783;48.730;8.006;2024-03-22T04:08:21;0.50;;;0.50;;
5521;SDS011;2783;48.730;8.006;2024-03-22T04:10:51;0.50;;;0.50;;
5521;SDS011;2783;48.730;8.006;2024-03-22T04:13:23;0.43;;;0.43;;
5521;SDS011;2783;48.730;8.006;2024-03-22T04:15:49;0.40;;;0.40;;
5521;SDS011;2783;48.730;8.006;2024-03-22T04:18:14;0.50;;;0.50;;
5521;SDS011;2783;48.730;8.006;2024-03-22T04:20:40;0.50;;;0.50;;
5521;SDS011;2783;48.730;8.006;2024-03-22T04:23:05;0.50;;;0.50;;
5521;SDS011;2783;48.730;8.006;2024-03-22T04:25:31;0.40;;;0.40;;
5521;SDS011;2783;48.730;8.006;2024-03-22T04:27:56;0.40;;;0.40;;
5521;SDS011;2783;48.730;8.006;2024-03-22T04:30:22;0.50;;;0.50;;
5521;SDS011;2783;48.730;8.006;2024-03-22T04:32:47;0.50;;;0.50;;
5521;SDS011;2783;48.730;8.006;2024-03-22T04:35:12;0.40;;;0.40;;
5521;SDS011;2783;48.730;8.006;2024-03-22T04:37:38;0.50;;;0.50;;
5521;SDS011;2783;48.730;8.006;2024-03-22T04:40:04;0.50;;;0.50;;
5521;SDS011;2783;48.730;8.006;2024-03-22T04:42:30;0.40;;;0.40;;
5521;SDS011;2783;48.730;8.006;2024-03-22T04:44:55;0.50;;;0.50;;
5521;SDS011;2783;48.730;8.006;2024-03-22T04:47:22;0.50;;;0.50;;
5521;SDS011;2783;48.730;8.006;2024-03-22T04:49:48;0.40;;;0.40;;
5521;SDS011;2783;48.730;8.006;2024-03-22T04:52:13;0.50;;;0.50;;
5521;SDS011;2783;48.730;8.006;2024-03-22T04:54:39;0.50;;;0.50;;
5521;SDS011;2783;48.730;8.006;2024-03-22T04:57:04;0.50;;;0.50;;
5521;SDS011;2783;48.730;8.006;2024-03-22T04:59:29;0.50;;;0.50;;
5521;SDS011;2783;48.730;8.006;2024-03-22T05:01:55;0.50;;;0.50;;
5521;SDS011;2783;48.730;8.006;2024-03-22T05:04:20;0.50;;;0.50;;
5521;SDS011;2783;48.730;8.006;2024-03-22T05:06:46;0.50;;;0.50;;
5521;SDS011;2783;48.730;8.006;2024-03-22T05:09:11;0.40;;;0.40;;
5521;SDS011;2783;48.730;8.006;2024-03-22T05:11:36;0.50;;;0.50;;
5521;SDS011;2783;48.730;8.006;2024-03-22T05:14:02;0.50;;;0.50;;
5521;SDS011;2783;48.730;8.006;2024-03-22T05:16:28;0.50;;;0.50;;
5521;SDS011;2783;48.730;8.006;2024-03-22T05:18:53;0.50;;;0.50;;
5521;SDS011;2783;48.730;8.006;2024-03-22T05:21:19;0.45;;;0.45;;
5521;SDS011;2783;48.730;8.006;2024-03-22T05:23:44;0.40;;;0.40;;
5521;SDS011;2783;48.730;8.006;2024-03-22T05:26:10;0.40;;;0.40;;
5521;SDS011;2783;48.730;8.006;2024-03-22T05:28:35;0.50;;;0.50;;
5521;SDS011;2783;48.730;8.006;2024-03-22T05:31:00;0.50;;;0.50;;
5521;SDS011;2783;48.730;8.006;2024-03-22T05:33:26;0.50;;;0.50;;
5521;SDS011;2783;48.730;8.006;2024-03-22T05:35:52;0.43;;;0.43;;
5521;SDS011;2783;48.730;8.006;2024-03-22T05:38:17;0.50;;;0.50;;
5521;SDS011;2783;48.730;8.006;2024-03-22T05:40:43;0.50;;;0.50;;
5521;SDS011;2783;48.730;8.006;2024-03-22T05:43:12;0.50;;;0.50;;
5521;SDS011;2783;48.730;8.006;2024-03-22T05:45:38;0.50;;;0.50;;
5521;SDS011;2783;48.730;8.006;2024-03-22T05:48:03;0.50;;;0.50;;
5521;SDS011;2783;48.730;8.006;2024-03-22T05:50:29;0.60;;;0.60;;
5521;SDS011;2783;48.730;8.006;2024-03-22T05:52:54;0.60;;;0.60;;
5521;SDS011;2783;48.730;8.006;2024-03-22T05:55:20;0.50;;;0.50;;
5521;SDS011;2783;48.730;8.006;2024-03-22T05:57:45;0.50;;;0.50;;
5521;SDS011;2783;48.730;8.006;2024-03-22T06:00:11;0.50;;;0.50;;
5521;SDS011;2783;48.730;8.006;2024-03-22T06:02:38;0.50;;;0.50;;
5521;SDS011;2783;48.730;8.006;2024-03-22T06:05:04;0.50;;;0.50;;
5521;SDS011;2783;48.730;8.006;2024-03-22T06:07:30;0.50;;;0.50;;
5521;SDS011;2783;48.730;8.006;2024-03-22T06:10:00;0.50;;;0.50;;
5521;SDS011;2783;48.730;8.006;2024-03-22T06:12:26;0.50;;;0.50;;
5521;SDS011;2783;48.730;8.006;2024-03-22T06:14:51;0.50;;;0.50;;
5521;SDS011;2783;48.730;8.006;2024-03-22T06:17:16;0.50;;;0.50;;
5521;SDS011;2783;48.730;8.006;2024-03-22T06:19:42;0.45;;;0.45;;
5521;SDS011;2783;48.730;8.006;2024-03-22T06:22:07;0.50;;;0.50;;
5521;SDS011;2783;48.730;8.006;2024-03-22T06:24:33;0.40;;;0.40;;
5521;SDS011;2783;48.730;8.006;2024-03-22T06:26:58;0.50;;;0.50;;
5521;SDS011;2783;48.730;8.006;2024-03-22T06:29:24;0.50;;;0.50;;
5521;SDS011;2783;48.730;8.006;2024-03-22T06:31:49;0.40;;;0.40;;
5521;SDS011;2783;48.730;8.006;2024-03-22T06:34:15;0.50;;;0.50;;
5521;SDS011;2783;48.730;8.006;2024-03-22T06:36:40;0.50;;;0.50;;
5521;SDS011;2783;48.730;8.006;2024-03-22T06:39:06;0.40;;;0.40;;
5521;SDS011;2783;48.730;8.006;2024-03-22T06:41:34;0.40;;;0.40;;
5521;SDS011;2783;48.730;8.006;2024-03-22T06:43:59;0.40;;;0.40;;
5521;SDS011;2783;48.730;8.006;2024-03-22T06:46:24;0.50;;;0.50;;
5521;SDS011;2783;48.730;8.006;2024-03-22T06:48:50;0.50;;;0.50;;
5521;SDS011;2783;48.730;8.006;2024-03-22T06:51:15;0.40;;;0.40;;
5521;SDS011;2783;48.730;8.006;2024-03-22T06:53:41;0.40;;;0.40;;
5521;SDS011;2783;48.730;8.006;2024-03-22T06:56:06;0.45;;;0.45;;
5521;SDS011;2783;48.730;8.006;2024-03-22T06:58:34;0.40;;;0.40;;
5521;SDS011;2783;48.730;8.006;2024-03-22T07:01:03;0.40;;;0.40;;
5521;SDS011;2783;48.730;8.006;2024-03-22T07:03:29;0.40;;;0.40;;
5521;SDS011;2783;48.730;8.006;2024-03-22T07:05:55;0.45;;;0.45;;
5521;SDS011;2783;48.730;8.006;2024-03-22T07:08:20;0.30;;;0.30;;
5521;SDS011;2783;48.730;8.006;2024-03-22T07:10:45;0.30;;;0.30;;
5521;SDS011;2783;48.730;8.006;2024-03-22T07:13:11;0.20;;;0.20;;
5521;SDS011;2783;48.730;8.006;2024-03-22T07:15:36;0.30;;;0.30;;
5521;SDS011;2783;48.730;8.006;2024-03-22T07:18:02;0.30;;;0.30;;
5521;SDS011;2783;48.730;8.006;2024-03-22T07:20:28;0.22;;;0.22;;
5521;SDS011;2783;48.730;8.006;2024-03-22T07:22:53;0.30;;;0.30;;
5521;SDS011;2783;48.730;8.006;2024-03-22T07:25:19;0.28;;;0.28;;
5521;SDS011;2783;48.730;8.006;2024-03-22T07:27:44;0.20;;;0.20;;
5521;SDS011;2783;48.730;8.006;2024-03-22T07:30:11;0.20;;;0.20;;
5521;SDS011;2783;48.730;8.006;2024-03-22T07:32:36;0.30;;;0.30;;
5521;SDS011;2783;48.730;8.006;2024-03-22T07:35:02;0.30;;;0.30;;
5521;SDS011;2783;48.730;8.006;2024-03-22T07:37:28;0.20;;;0.20;;
5521;SDS011;2783;48.730;8.006;2024-03-22T07:39:54;0.20;;;0.20;;
5521;SDS011;2783;48.730;8.006;2024-03-22T07:42:19;0.30;;;0.30;;
5521;SDS011;2783;48.730;8.006;2024-03-22T07:44:46;0.30;;;0.30;;
5521;SDS011;2783;48.730;8.006;2024-03-22T07:47:12;0.20;;;0.20;;
5521;SDS011;2783;48.730;8.006;2024-03-22T07:49:37;0.20;;;0.20;;
5521;SDS011;2783;48.730;8.006;2024-03-22T07:52:02;0.20;;;0.20;;
5521;SDS011;2783;48.730;8.006;2024-03-22T07:54:29;0.20;;;0.20;;
5521;SDS011;2783;48.730;8.006;2024-03-22T07:56:54;0.20;;;0.20;;
5521;SDS011;2783;48.730;8.006;2024-03-22T07:59:19;0.20;;;0.20;;
5521;SDS011;2783;48.730;8.006;2024-03-22T08:01:45;0.20;;;0.20;;
5521;SDS011;2783;48.730;8.006;2024-03-22T08:04:12;0.20;;;0.20;;
5521;SDS011;2783;48.730;8.006;2024-03-22T08:06:37;0.20;;;0.20;;
5521;SDS011;2783;48.730;8.006;2024-03-22T08:09:02;0.20;;;0.20;;
5521;SDS011;2783;48.730;8.006;2024-03-22T08:11:28;0.10;;;0.10;;
5521;SDS011;2783;48.730;8.006;2024-03-22T08:13:53;0.20;;;0.20;;
5521;SDS011;2783;48.730;8.006;2024-03-22T08:16:26;0.20;;;0.20;;
5521;SDS011;2783;48.730;8.006;2024-03-22T08:18:52;0.10;;;0.10;;
5521;SDS011;2783;48.730;8.006;2024-03-22T08:21:17;0.20;;;0.20;;
5521;SDS011;2783;48.730;8.006;2024-03-22T08:23:43;0.20;;;0.20;;
5521;SDS011;2783;48.730;8.006;2024-03-22T08:26:08;0.10;;;0.10;;
5521;SDS011;2783;48.730;8.006;2024-03-22T08:28:34;0.20;;;0.20;;
5521;SDS011;2783;48.730;8.006;2024-03-22T08:31:03;0.10;;;0.10;;
5521;SDS011;2783;48.730;8.006;2024-03-22T08:33:29;0.10;;;0.10;;
5521;SDS011;2783;48.730;8.006;2024-03-22T08:35:54;0.10;;;0.10;;
5521;SDS011;2783;48.730;8.006;2024-03-22T08:38:19;0.10;;;0.10;;
5521;SDS011;2783;48.730;8.006;2024-03-22T08:40:45;0.10;;;0.10;;
5521;SDS011;2783;48.730;8.006;2024-03-22T08:43:10;0.10;;;0.10;;
5521;SDS011;2783;48.730;8.006;2024-03-22T08:45:36;0.10;;;0.10;;
5521;SDS011;2783;48.730;8.006;2024-03-22T08:48:01;0.20;;;0.20;;
5521;SDS011;2783;48.730;8.006;2024-03-22T08:50:27;0.10;;;0.10;;
5521;SDS011;2783;48.730;8.006;2024-03-22T08:52:52;0.15;;;0.15;;
5521;SDS011;2783;48.730;8.006;2024-03-22T08:55:18;0.10;;;0.10;;
5521;SDS011;2783;48.730;8.006;2024-03-22T08:57:43;0.10;;;0.10;;
5521;SDS011;2783;48.730;8.006;2024-03-22T09:00:09;0.10;;;0.10;;
5521;SDS011;2783;48.730;8.006;2024-03-22T09:02:35;0.10;;;0.10;;
5521;SDS011;2783;48.730;8.006;2024-03-22T09:05:02;0.10;;;0.10;;
5521;SDS011;2783;48.730;8.006;2024-03-22T09:07:27;0.10;;;0.10;;
5521;SDS011;2783;48.730;8.006;2024-03-22T09:09:52;0.10;;;0.10;;
5521;SDS011;2783;48.730;8.006;2024-03-22T09:12:19;0.10;;;0.10;;
5521;SDS011;2783;48.730;8.006;2024-03-22T09:14:44;0.10;;;0.10;;
5521;SDS011;2783;48.730;8.006;2024-03-22T09:17:09;0.10;;;0.10;;
5521;SDS011;2783;48.730;8.006;2024-03-22T09:19:35;0.10;;;0.10;;
5521;SDS011;2783;48.730;8.006;2024-03-22T09:22:00;0.10;;;0.10;;
5521;SDS011;2783;48.730;8.006;2024-03-22T09:24:26;0.10;;;0.10;;
5521;SDS011;2783;48.730;8.006;2024-03-22T09:26:51;0.10;;;0.10;;
5521;SDS011;2783;48.730;8.006;2024-03-22T09:29:18;0.10;;;0.10;;
5521;SDS011;2783;48.730;8.006;2024-03-22T09:31:43;0.10;;;0.10;;
5521;SDS011;2783;48.730;8.006;2024-03-22T09:34:08;0.15;;;0.15;;
5521;SDS011;2783;48.730;8.006;2024-03-22T09:36:34;0.10;;;0.10;;
5521;SDS011;2783;48.730;8.006;2024-03-22T09:39:01;0.10;;;0.10;;
5521;SDS011;2783;48.730;8.006;2024-03-22T09:41:27;0.10;;;0.10;;
5521;SDS011;2783;48.730;8.006;2024-03-22T09:43:54;0.20;;;0.20;;
5521;SDS011;2783;48.730;8.006;2024-03-22T09:46:23;0.20;;;0.20;;
5521;SDS011;2783;48.730;8.006;2024-03-22T09:48:49;0.17;;;0.17;;
5521;SDS011;2783;48.730;8.006;2024-03-22T09:51:16;0.10;;;0.10;;
5521;SDS011;2783;48.730;8.006;2024-03-22T09:53:45;0.10;;;0.10;;
5521;SDS011;2783;48.730;8.006;2024-03-22T09:56:13;0.20;;;0.20;;
5521;SDS011;2783;48.730;8.006;2024-03-22T09:58:42;0.10;;;0.10;;
5521;SDS011;2783;48.730;8.006;2024-03-22T10:01:09;0.20;;;0.20;;
5521;SDS011;2783;48.730;8.006;2024-03-22T10:03:36;0.20;;;0.20;;
5521;SDS011;2783;48.730;8.006;2024-03-22T10:06:01;0.10;;;0.10;;
5521;SDS011;2783;48.730;8.006;2024-03-22T10:08:27;0.10;;;0.10;;
5521;SDS011;2783;48.730;8.006;2024-03-22T10:10:52;0.20;;;0.20;;
5521;SDS011;2783;48.730;8.006;2024-03-22T10:13:18;0.10;;;0.10;;
5521;SDS011;2783;48.730;8.006;2024-03-22T10:15:43;0.20;;;0.20;;
5521;SDS011;2783;48.730;8.006;2024-03-22T10:18:09;0.10;;;0.10;;
5521;SDS011;2783;48.730;8.006;2024-03-22T10:20:35;0.10;;;0.10;;
5521;SDS011;2783;48.730;8.006;2024-03-22T10:23:00;0.20;;;0.20;;
5521;SDS011;2783;48.730;8.006;2024-03-22T10:25:29;0.20;;;0.20;;
5521;SDS011;2783;48.730;8.006;2024-03-22T10:27:54;0.10;;;0.10;;
5521;SDS011;2783;48.730;8.006;2024-03-22T10:30:21;0.20;;;0.20;;
5521;SDS011;2783;48.730;8.006;2024-03-22T10:32:47;0.20;;;0.20;;
5521;SDS011;2783;48.730;8.006;2024-03-22T10:35:14;0.10;;;0.10;;
5521;SDS011;2783;48.730;8.006;2024-03-22T10:37:40;0.10;;;0.10;;
5521;SDS011;2783;48.730;8.006;2024-03-22T10:40:07;0.10;;;0.10;;
5521;SDS011;2783;48.730;8.006;2024-03-22T10:42:39;0.10;;;0.10;;
5521;SDS011;2783;48.730;8.006;2024-03-22T10:45:06;0.10;;;0.10;;
5521;SDS011;2783;48.730;8.006;2024-03-22T10:47:34;0.10;;;0.10;;
5521;SDS011;2783;48.730;8.006;2024-03-22T10:50:07;0.20;;;0.20;;
5521;SDS011;2783;48.730;8.006;2024-03-22T10:55:22;0.15;;;0.15;;
5521;SDS011;2783;48.730;8.006;2024-03-22T10:57:55;0.20;;;0.20;;
5521;SDS011;2783;48.730;8.006;2024-03-22T11:00:28;0.10;;;0.10;;
5521;SDS011;2783;48.730;8.006;2024-03-22T11:02:55;0.15;;;0.15;;
5521;SDS011;2783;48.730;8.006;2024-03-22T11:05:21;0.10;;;0.10;;
5521;SDS011;2783;48.730;8.006;2024-03-22T11:07:46;0.10;;;0.10;;
5521;SDS011;2783;48.730;8.006;2024-03-22T11:10:13;0.10;;;0.10;;
5521;SDS011;2783;48.730;8.006;2024-03-22T11:12:39;0.10;;;0.10;;
5521;SDS011;2783;48.730;8.006;2024-03-22T11:15:05;0.10;;;0.10;;
5521;SDS011;2783;48.730;8.006;2024-03-22T11:17:30;0.10;;;0.10;;
5521;SDS011;2783;48.730;8.006;2024-03-22T11:19:56;0.13;;;0.13;;
5521;SDS011;2783;48.730;8.006;2024-03-22T11:22:21;0.10;;;0.10;;
5521;SDS011;2783;48.730;8.006;2024-03-22T11:24:47;0.10;;;0.10;;
5521;SDS011;2783;48.730;8.006;2024-03-22T11:27:13;0.20;;;0.20;;
5521;SDS011;2783;48.730;8.006;2024-03-22T11:29:39;0.10;;;0.10;;
5521;SDS011;2783;48.730;8.006;2024-03-22T11:32:06;0.10;;;0.10;;
5521;SDS011;2783;48.730;8.006;2024-03-22T11:34:35;0.10;;;0.10;;
5521;SDS011;2783;48.730;8.006;2024-03-22T11:37:02;0.10;;;0.10;;
5521;SDS011;2783;48.730;8.006;2024-03-22T11:39:27;0.10;;;0.10;;
5521;SDS011;2783;48.730;8.006;2024-03-22T11:41:53;0.10;;;0.10;;
5521;SDS011;2783;48.730;8.006;2024-03-22T11:44:19;0.10;;;0.10;;
5521;SDS011;2783;48.730;8.006;2024-03-22T11:46:46;0.10;;;0.10;;
5521;SDS011;2783;48.730;8.006;2024-03-22T11:49:11;0.10;;;0.10;;
5521;SDS011;2783;48.730;8.006;2024-03-22T11:51:36;0.10;;;0.10;;
5521;SDS011;2783;48.730;8.006;2024-03-22T11:54:03;0.10;;;0.10;;
5521;SDS011;2783;48.730;8.006;2024-03-22T11:56:29;0.10;;;0.10;;
5521;SDS011;2783;48.730;8.006;2024-03-22T11:58:59;0.20;;;0.20;;
5521;SDS011;2783;48.730;8.006;2024-03-22T12:01:26;0.20;;;0.20;;
5521;SDS011;2783;48.730;8.006;2024-03-22T12:03:51;0.10;;;0.10;;
5521;SDS011;2783;48.730;8.006;2024-03-22T12:06:17;0.10;;;0.10;;
5521;SDS011;2783;48.730;8.006;2024-03-22T12:08:42;0.13;;;0.13;;
5521;SDS011;2783;48.730;8.006;2024-03-22T12:11:08;0.13;;;0.13;;
5521;SDS011;2783;48.730;8.006;2024-03-22T12:13:35;0.13;;;0.13;;
5521;SDS011;2783;48.730;8.006;2024-03-22T12:16:00;0.20;;;0.20;;
5521;SDS011;2783;48.730;8.006;2024-03-22T12:18:27;0.20;;;0.20;;
5521;SDS011;2783;48.730;8.006;2024-03-22T12:20:52;0.20;;;0.20;;
5521;SDS011;2783;48.730;8.006;2024-03-22T12:23:18;0.20;;;0.20;;
5521;SDS011;2783;48.730;8.006;2024-03-22T12:25:43;0.20;;;0.20;;
5521;SDS011;2783;48.730;8.006;2024-03-22T12:28:09;0.20;;;0.20;;
5521;SDS011;2783;48.730;8.006;2024-03-22T12:30:34;0.10;;;0.10;;
5521;SDS011;2783;48.730;8.006;2024-03-22T12:33:00;0.10;;;0.10;;
5521;SDS011;2783;48.730;8.006;2024-03-22T12:35:26;0.10;;;0.10;;
5521;SDS011;2783;48.730;8.006;2024-03-22T12:37:51;0.10;;;0.10;;
5521;SDS011;2783;48.730;8.006;2024-03-22T12:40:17;0.10;;;0.10;;
5521;SDS011;2783;48.730;8.006;2024-03-22T12:42:42;0.10;;;0.10;;
5521;SDS011;2783;48.730;8.006;2024-03-22T12:45:08;0.10;;;0.10;;
5521;SDS011;2783;48.730;8.006;2024-03-22T12:47:34;0.10;;;0.10;;
5521;SDS011;2783;48.730;8.006;2024-03-22T12:49:59;0.10;;;0.10;;
5521;SDS011;2783;48.730;8.006;2024-03-22T12:52:25;0.20;;;0.20;;
5521;SDS011;2783;48.730;8.006;2024-03-22T12:54:50;0.20;;;0.20;;
5521;SDS011;2783;48.730;8.006;2024-03-22T12:57:16;0.20;;;0.20;;
5521;SDS011;2783;48.730;8.006;2024-03-22T12:59:41;0.10;;;0.10;;
5521;SDS011;2783;48.730;8.006;2024-03-22T13:02:07;0.17;;;0.17;;
5521;SDS011;2783;48.730;8.006;2024-03-22T13:04:33;0.20;;;0.20;;
5521;SDS011;2783;48.730;8.006;2024-03-22T13:06:58;0.10;;;0.10;;
5521;SDS011;2783;48.730;8.006;2024-03-22T13:09:24;0.20;;;0.20;;
5521;SDS011;2783;48.730;8.006;2024-03-22T13:11:49;0.15;;;0.15;;
5521;SDS011;2783;48.730;8.006;2024-03-22T13:14:15;0.20;;;0.20;;
5521;SDS011;2783;48.730;8.006;2024-03-22T13:16:40;0.20;;;0.20;;
5521;SDS011;2783;48.730;8.006;2024-03-22T13:19:06;0.17;;;0.17;;
5521;SDS011;2783;48.730;8.006;2024-03-22T13:21:37;0.20;;;0.20;;
5521;SDS011;2783;48.730;8.006;2024-03-22T13:24:02;0.13;;;0.13;;
5521;SDS011;2783;48.730;8.006;2024-03-22T13:26:28;0.20;;;0.20;;
5521;SDS011;2783;48.730;8.006;2024-03-22T13:28:53;0.10;;;0.10;;
5521;SDS011;2783;48.730;8.006;2024-03-22T13:31:19;0.20;;;0.20;;
5521;SDS011;2783;48.730;8.006;2024-03-22T13:33:44;0.10;;;0.10;;
5521;SDS011;2783;48.730;8.006;2024-03-22T13:36:09;0.20;;;0.20;;
5521;SDS011;2783;48.730;8.006;2024-03-22T13:38:35;0.17;;;0.17;;
5521;SDS011;2783;48.730;8.006;2024-03-22T13:41:00;0.20;;;0.20;;
5521;SDS011;2783;48.730;8.006;2024-03-22T13:43:29;0.20;;;0.20;;
5521;SDS011;2783;48.730;8.006;2024-03-22T13:45:54;0.10;;;0.10;;
5521;SDS011;2783;48.730;8.006;2024-03-22T13:48:20;0.10;;;0.10;;
5521;SDS011;2783;48.730;8.006;2024-03-22T13:50:54;0.10;;;0.10;;
5521;SDS011;2783;48.730;8.006;2024-03-22T13:53:20;0.20;;;0.20;;
5521;SDS011;2783;48.730;8.006;2024-03-22T13:55:49;0.10;;;0.10;;
5521;SDS011;2783;48.730;8.006;2024-03-22T13:58:15;0.20;;;0.20;;
5521;SDS011;2783;48.730;8.006;2024-03-22T14:00:40;0.10;;;0.10;;
5521;SDS011;2783;48.730;8.006;2024-03-22T14:03:06;0.10;;;0.10;;
5521;SDS011;2783;48.730;8.006;2024-03-22T14:05:31;0.13;;;0.13;;
5521;SDS011;2783;48.730;8.006;2024-03-22T14:07:58;0.20;;;0.20;;
5521;SDS011;2783;48.730;8.006;2024-03-22T14:10:23;0.20;;;0.20;;
5521;SDS011;2783;48.730;8.006;2024-03-22T14:12:51;0.10;;;0.10;;
5521;SDS011;2783;48.730;8.006;2024-03-22T14:15:17;0.20;;;0.20;;
5521;SDS011;2783;48.730;8.006;2024-03-22T14:17:42;0.20;;;0.20;;
5521;SDS011;2783;48.730;8.006;2024-03-22T14:20:08;0.10;;;0.10;;
5521;SDS011;2783;48.730;8.006;2024-03-22T14:22:39;0.20;;;0.20;;
5521;SDS011;2783;48.730;8.006;2024-03-22T14:25:06;0.15;;;0.15;;
5521;SDS011;2783;48.730;8.006;2024-03-22T14:27:32;0.10;;;0.10;;
5521;SDS011;2783;48.730;8.006;2024-03-22T14:29:59;0.20;;;0.20;;
5521;SDS011;2783;48.730;8.006;2024-03-22T14:32:24;0.20;;;0.20;;
5521;SDS011;2783;48.730;8.006;2024-03-22T14:34:51;0.10;;;0.10;;
5521;SDS011;2783;48.730;8.006;2024-03-22T14:37:16;0.10;;;0.10;;
5521;SDS011;2783;48.730;8.006;2024-03-22T14:39:42;0.10;;;0.10;;
5521;SDS011;2783;48.730;8.006;2024-03-22T14:42:08;0.20;;;0.20;;
5521;SDS011;2783;48.730;8.006;2024-03-22T14:44:33;0.20;;;0.20;;
5521;SDS011;2783;48.730;8.006;2024-03-22T14:46:59;0.20;;;0.20;;
5521;SDS011;2783;48.730;8.006;2024-03-22T14:49:24;0.20;;;0.20;;
5521;SDS011;2783;48.730;8.006;2024-03-22T14:51:50;0.10;;;0.10;;
5521;SDS011;2783;48.730;8.006;2024-03-22T14:54:16;0.17;;;0.17;;
5521;SDS011;2783;48.730;8.006;2024-03-22T14:56:41;0.20;;;0.20;;
5521;SDS011;2783;48.730;8.006;2024-03-22T14:59:07;0.10;;;0.10;;
5521;SDS011;2783;48.730;8.006;2024-03-22T15:01:32;0.20;;;0.20;;
5521;SDS011;2783;48.730;8.006;2024-03-22T15:03:57;0.20;;;0.20;;
5521;SDS011;2783;48.730;8.006;2024-03-22T15:06:23;0.13;;;0.13;;
5521;SDS011;2783;48.730;8.006;2024-03-22T15:08:49;0.15;;;0.15;;